createdAt,value
2022-12-19T00:01:40.272Z,32.30
2022-12-19T00:04:12.271Z,27.37
2022-12-19T00:06:43.356Z,31.27
2022-12-19T00:09:11.153Z,28.67
2022-12-19T00:11:39.367Z,28.77
2022-12-19T00:14:07.308Z,24.33
2022-12-19T00:16:34.706Z,27.50
2022-12-19T00:19:02.776Z,28.30
2022-12-19T00:21:34.687Z,30.87
2022-12-19T00:24:03.287Z,30.47
2022-12-19T00:26:34.823Z,29.67
2022-12-19T00:29:04.473Z,27.00
2022-12-19T00:31:37.151Z,26.43
2022-12-19T00:34:04.942Z,22.57
2022-12-19T00:36:35.232Z,25.90
2022-12-19T00:39:08.225Z,24.30
2022-12-19T00:41:39.419Z,24.37
2022-12-19T00:44:20.338Z,27.10
2022-12-19T00:46:52.749Z,26.93
2022-12-19T00:49:20.862Z,27.07
2022-12-19T00:51:49.671Z,25.03
2022-12-19T00:54:17.112Z,23.57
2022-12-19T00:56:45.221Z,27.90
2022-12-19T00:59:12.663Z,24.73
2022-12-19T01:01:42.327Z,28.30
2022-12-19T01:04:30.332Z,31.03
2022-12-19T01:07:02.751Z,23.80
2022-12-19T01:09:30.779Z,25.63
2022-12-19T01:12:15.835Z,24.97
2022-12-19T01:14:43.387Z,23.97
2022-12-19T01:17:10.935Z,23.53
2022-12-19T01:19:43.628Z,26.87
2022-12-19T01:22:13.626Z,22.60
2022-12-19T01:24:41.592Z,24.17
2022-12-19T01:27:09.160Z,22.03
2022-12-19T01:29:37.650Z,26.77
2022-12-19T01:32:20.179Z,27.97
2022-12-19T01:34:47.712Z,27.87
2022-12-19T01:37:19.493Z,24.37
2022-12-19T01:39:47.522Z,20.97
2022-12-19T01:42:17.677Z,21.43
2022-12-19T01:45:33.957Z,24.77
2022-12-19T01:48:12.170Z,28.83
2022-12-19T01:50:51.441Z,23.93
2022-12-19T01:53:29.885Z,24.47
2022-12-19T01:55:57.399Z,23.67
2022-12-19T01:58:24.959Z,22.57
2022-12-19T02:00:52.535Z,24.47
2022-12-19T02:03:23.515Z,22.37
2022-12-19T02:05:52.276Z,21.97
2022-12-19T02:08:20.258Z,21.77
2022-12-19T02:10:49.778Z,22.77
2022-12-19T02:13:17.719Z,20.10
2022-12-19T02:15:54.669Z,21.43
2022-12-19T02:18:35.708Z,22.47
2022-12-19T02:21:22.538Z,21.93
2022-12-19T02:24:13.321Z,23.00
2022-12-19T02:27:01.143Z,24.40
2022-12-19T02:29:53.131Z,20.93
2022-12-19T02:32:32.284Z,24.00
2022-12-19T02:35:12.427Z,23.77
2022-12-19T02:37:52.794Z,25.07
2022-12-19T02:40:29.359Z,22.67
2022-12-19T02:43:03.087Z,23.90
2022-12-19T02:45:38.384Z,23.37
2022-12-19T02:48:19.267Z,25.43
2022-12-19T02:50:50.528Z,23.17
2022-12-19T02:53:23.999Z,27.20
2022-12-19T02:56:19.362Z,23.43
2022-12-19T02:59:01.736Z,23.13
2022-12-19T03:01:41.346Z,24.73
2022-12-19T03:04:19.855Z,21.37
2022-12-19T03:07:00.756Z,25.20
2022-12-19T03:09:48.224Z,26.83
2022-12-19T03:12:25.352Z,26.43
2022-12-19T03:15:02.159Z,24.93
2022-12-19T03:17:30.659Z,25.13
2022-12-19T03:20:00.364Z,24.83
2022-12-19T03:22:28.950Z,22.77
2022-12-19T03:24:57.539Z,25.93
2022-12-19T03:27:30.943Z,22.90
2022-12-19T03:30:05.130Z,23.17
2022-12-19T03:32:35.257Z,27.60
2022-12-19T03:35:09.350Z,25.30
2022-12-19T03:37:44.193Z,28.20
2022-12-19T03:40:17.990Z,26.93
2022-12-19T03:43:08.203Z,28.63
2022-12-19T03:45:49.505Z,28.53
2022-12-19T03:48:25.852Z,26.97
2022-12-19T03:51:24.637Z,27.63
2022-12-19T03:54:00.709Z,23.63
2022-12-19T03:56:36.874Z,28.13
2022-12-19T03:59:17.323Z,26.60
2022-12-19T04:01:54.366Z,26.17
2022-12-19T04:04:24.851Z,23.17
2022-12-19T04:07:00.602Z,28.97
2022-12-19T04:09:31.605Z,30.43
2022-12-19T04:12:13.091Z,27.87
2022-12-19T04:14:47.971Z,23.67
2022-12-19T04:17:25.720Z,28.03
2022-12-19T04:20:08.555Z,30.37
2022-12-19T04:22:41.766Z,30.67
2022-12-19T04:25:16.625Z,27.27
2022-12-19T04:27:49.797Z,27.30
2022-12-19T04:30:24.002Z,24.03
2022-12-19T04:32:52.690Z,29.13
2022-12-19T04:35:24.046Z,28.67
2022-12-19T04:38:00.709Z,28.10
2022-12-19T04:40:30.130Z,27.87
2022-12-19T04:42:58.391Z,28.20
2022-12-19T04:45:37.522Z,25.07
2022-12-19T04:48:12.719Z,28.83
2022-12-19T04:50:42.979Z,28.70
2022-12-19T04:53:15.544Z,29.03
2022-12-19T04:55:45.580Z,27.27
2022-12-19T04:58:23.053Z,27.63
2022-12-19T05:00:54.110Z,28.80
2022-12-19T05:03:22.751Z,30.83
2022-12-19T05:05:57.012Z,26.90
2022-12-19T05:08:25.784Z,29.50
2022-12-19T05:10:53.226Z,30.03
2022-12-19T05:13:20.666Z,29.23
2022-12-19T05:15:56.901Z,26.37
2022-12-19T05:18:24.353Z,27.93
2022-12-19T05:20:52.082Z,28.80
2022-12-19T05:23:20.106Z,32.17
2022-12-19T05:25:49.085Z,32.23
2022-12-19T05:28:17.758Z,31.30
2022-12-19T05:30:50.602Z,30.87
2022-12-19T05:33:19.630Z,26.77
2022-12-19T05:35:49.374Z,31.33
2022-12-19T05:38:16.776Z,28.07
2022-12-19T05:40:44.209Z,32.63
2022-12-19T05:43:12.999Z,31.50
2022-12-19T05:45:40.968Z,28.97
2022-12-19T05:48:08.675Z,28.27
2022-12-19T05:50:37.281Z,28.87
2022-12-19T05:53:04.713Z,28.70
2022-12-19T05:55:32.532Z,31.93
2022-12-19T05:57:59.931Z,32.90
2022-12-19T06:00:28.704Z,28.93
2022-12-19T06:02:56.213Z,29.93
2022-12-19T06:05:23.770Z,27.70
2022-12-19T06:07:51.229Z,32.57
2022-12-19T06:10:18.766Z,29.77
2022-12-19T06:12:46.302Z,27.23
2022-12-19T06:15:13.748Z,30.37
2022-12-19T06:17:42.515Z,28.67
2022-12-19T06:20:11.246Z,31.57
2022-12-19T06:22:38.735Z,30.23
2022-12-19T06:25:07.723Z,28.90
2022-12-19T06:27:35.167Z,26.90
2022-12-19T06:30:02.677Z,28.33
2022-12-19T06:32:33.543Z,28.67
2022-12-19T06:35:07.563Z,29.47
2022-12-19T06:37:38.925Z,27.13
2022-12-19T06:40:08.230Z,28.50
2022-12-19T06:42:34.746Z,29.90
2022-12-19T06:45:02.299Z,28.40
2022-12-19T06:47:29.771Z,30.23
2022-12-19T06:49:57.252Z,28.07
2022-12-19T06:52:26.056Z,28.23
2022-12-19T06:54:53.815Z,27.87
2022-12-19T06:57:21.278Z,30.67
2022-12-19T06:59:48.762Z,22.50
2022-12-19T07:02:27.675Z,28.07
2022-12-19T07:05:00.950Z,27.20
2022-12-19T07:07:30.653Z,30.93
2022-12-19T07:09:58.562Z,27.43
2022-12-19T07:12:27.236Z,27.57
2022-12-19T07:14:54.662Z,27.37
2022-12-19T07:17:24.043Z,27.73
2022-12-19T07:19:51.800Z,27.90
2022-12-19T07:22:19.396Z,27.80
2022-12-19T07:24:48.417Z,26.57
2022-12-19T07:27:15.982Z,28.50
2022-12-19T07:29:43.543Z,29.30
2022-12-19T07:32:10.978Z,27.57
2022-12-19T07:34:38.444Z,24.80
2022-12-19T07:37:06.812Z,29.50
2022-12-19T07:39:34.254Z,21.33
2022-12-19T07:42:02.981Z,27.70
2022-12-19T07:44:30.449Z,25.90
2022-12-19T07:46:58.746Z,26.37
2022-12-19T07:49:26.233Z,26.53
2022-12-19T07:51:53.765Z,26.93
2022-12-19T07:54:21.342Z,25.07
2022-12-19T07:56:48.819Z,25.67
2022-12-19T07:59:17.581Z,25.90
2022-12-19T08:01:45.339Z,24.40
2022-12-19T08:04:13.188Z,29.27
2022-12-19T08:06:41.540Z,30.67
2022-12-19T08:09:09.251Z,30.83
2022-12-19T08:11:36.764Z,25.33
2022-12-19T08:14:04.449Z,28.50
2022-12-19T08:16:43.905Z,30.70
2022-12-19T08:19:17.100Z,25.37
2022-12-19T08:21:44.751Z,26.37
2022-12-19T08:24:12.310Z,24.37
2022-12-19T08:26:44.544Z,24.70
2022-12-19T08:29:14.931Z,28.13
2022-12-19T08:31:43.762Z,26.10
2022-12-19T08:34:11.176Z,27.80
2022-12-19T08:36:39.466Z,23.23
2022-12-19T08:39:06.934Z,27.23
2022-12-19T08:41:34.405Z,25.87
2022-12-19T08:44:02.152Z,25.90
2022-12-19T08:46:30.107Z,26.97
2022-12-19T08:48:59.564Z,26.97
2022-12-19T08:51:27.647Z,23.77
2022-12-19T08:53:55.094Z,23.30
2022-12-19T08:56:23.118Z,27.83
2022-12-19T08:58:52.488Z,24.53
2022-12-19T09:01:23.919Z,24.87
2022-12-19T09:04:12.987Z,24.70
2022-12-19T09:06:40.572Z,26.07
2022-12-19T09:09:08.049Z,21.33
2022-12-19T09:11:46.705Z,25.33
2022-12-19T09:14:21.335Z,23.23
2022-12-19T09:16:49.519Z,27.07
2022-12-19T09:19:18.072Z,22.83
2022-12-19T09:21:46.864Z,23.00
2022-12-19T09:24:14.648Z,25.77
2022-12-19T09:26:44.117Z,25.33
2022-12-19T09:29:19.924Z,22.80
2022-12-19T09:31:50.406Z,28.27
2022-12-19T09:34:24.811Z,24.50
2022-12-19T09:36:56.189Z,23.20
2022-12-19T09:39:23.615Z,23.50
2022-12-19T09:42:07.145Z,27.10
2022-12-19T09:44:57.102Z,26.37
2022-12-19T09:47:27.870Z,29.67
2022-12-19T09:49:55.757Z,25.70
2022-12-19T09:52:31.511Z,30.13
2022-12-19T09:55:04.609Z,25.37
2022-12-19T09:57:47.982Z,25.70
2022-12-19T10:00:19.608Z,26.80
2022-12-19T10:02:51.570Z,26.10
2022-12-19T10:05:49.598Z,25.97
2022-12-19T10:08:18.756Z,21.97
2022-12-19T10:12:40.651Z,23.00
2022-12-19T10:14:01.642Z,28.10
2022-12-19T10:16:37.273Z,31.30
2022-12-19T10:19:08.210Z,26.23
2022-12-19T10:22:16.277Z,24.17
2022-12-19T10:24:51.965Z,26.53
2022-12-19T10:27:58.578Z,23.13
2022-12-19T10:30:28.336Z,26.03
2022-12-19T10:33:06.719Z,22.77
2022-12-19T10:35:43.373Z,25.13
2022-12-19T10:38:22.230Z,19.83
2022-12-19T10:40:56.363Z,22.97
2022-12-19T10:43:35.650Z,24.57
2022-12-19T10:46:18.509Z,26.23
2022-12-19T10:48:46.189Z,26.07
2022-12-19T10:51:14.789Z,23.07
2022-12-19T10:53:42.329Z,25.87
2022-12-19T10:56:22.851Z,24.23
2022-12-19T10:58:57.253Z,22.40
2022-12-19T11:01:28.260Z,23.47
2022-12-19T11:04:15.573Z,24.23
2022-12-19T11:06:48.275Z,23.13
2022-12-19T11:09:25.007Z,24.07
2022-12-19T11:17:06.996Z,27.40
2022-12-19T11:18:11.661Z,28.13
2022-12-19T11:25:00.087Z,20.53
2022-12-19T11:29:30.270Z,25.93
2022-12-19T11:29:43.950Z,23.17
2022-12-19T11:30:36.278Z,29.07
2022-12-19T11:30:36.553Z,26.17
2022-12-19T11:32:31.465Z,25.80
2022-12-19T11:34:36.001Z,24.80
2022-12-19T11:37:14.242Z,25.40
2022-12-19T11:39:46.589Z,24.37
2022-12-19T11:42:22.168Z,23.50
2022-12-19T11:44:59.087Z,25.87
2022-12-19T11:47:34.797Z,26.20
2022-12-19T11:50:05.701Z,23.57
2022-12-19T11:55:40.530Z,25.83
2022-12-19T11:58:11.030Z,27.93
2022-12-19T12:00:45.747Z,27.70
2022-12-19T12:03:57.026Z,26.57
2022-12-19T12:06:34.810Z,25.83
2022-12-19T12:11:46.641Z,24.33
2022-12-19T12:22:29.119Z,29.73
2022-12-19T12:25:48.652Z,25.67
2022-12-19T12:31:06.986Z,29.83
2022-12-19T12:31:26.890Z,27.37
2022-12-19T12:31:52.739Z,28.33
2022-12-19T12:31:57.583Z,28.53
2022-12-19T12:32:00.976Z,26.97
2022-12-19T12:35:35.107Z,27.53
2022-12-19T12:37:52.421Z,26.87
2022-12-19T12:39:21.931Z,24.70
2022-12-19T12:42:07.038Z,25.50
2022-12-19T12:44:41.372Z,25.23
2022-12-19T12:47:18.235Z,27.13
2022-12-19T12:49:51.238Z,27.93
2022-12-19T12:52:22.763Z,24.37
2022-12-19T12:54:51.417Z,26.90
2022-12-19T12:57:21.960Z,26.47
2022-12-19T13:00:21.529Z,26.80
2022-12-19T13:02:53.976Z,26.63
2022-12-19T13:05:35.377Z,24.43
2022-12-19T13:08:23.214Z,27.20
2022-12-19T13:10:55.280Z,24.57
2022-12-19T13:13:50.650Z,26.43
2022-12-19T13:16:53.324Z,28.20
2022-12-19T13:19:28.436Z,31.30
2022-12-19T13:22:20.496Z,28.47
2022-12-19T13:24:50.983Z,28.27
2022-12-19T13:27:40.560Z,30.60
2022-12-19T13:30:17.282Z,23.10
2022-12-19T13:33:10.939Z,32.57
2022-12-19T13:39:10.706Z,29.20
2022-12-19T13:40:01.199Z,28.47
2022-12-19T13:41:48.734Z,27.87
2022-12-19T13:44:20.561Z,26.63
2022-12-19T13:46:48.068Z,33.33
2022-12-19T13:49:20.782Z,30.67
2022-12-19T13:51:50.555Z,28.67
2022-12-19T13:54:24.756Z,30.50
2022-12-19T13:56:53.984Z,27.23
2022-12-19T13:59:23.561Z,31.10
2022-12-19T14:01:53.761Z,27.27
2022-12-19T14:04:30.250Z,28.00
2022-12-19T14:07:01.267Z,30.57
2022-12-19T14:11:28.011Z,29.50
2022-12-19T14:13:44.070Z,37.93
2022-12-19T14:15:30.309Z,33.50
2022-12-19T14:18:43.433Z,30.73
2022-12-19T14:22:01.852Z,28.27
2022-12-19T14:23:44.101Z,30.67
2022-12-19T14:28:20.805Z,29.60
2022-12-19T14:29:09.455Z,30.70
2022-12-19T14:31:39.712Z,33.93
2022-12-19T14:35:46.535Z,30.50
2022-12-19T14:37:54.277Z,31.40
2022-12-19T14:40:25.740Z,30.20
2022-12-19T14:43:56.741Z,30.13
2022-12-19T14:54:16.320Z,32.73
2022-12-19T14:54:16.320Z,36.23
2022-12-19T14:54:34.135Z,31.80
2022-12-19T14:56:13.044Z,36.60
2022-12-19T14:58:54.982Z,28.73
2022-12-19T15:01:24.218Z,34.37
2022-12-19T15:04:53.081Z,33.47
2022-12-19T15:07:07.385Z,28.77
2022-12-19T15:11:07.821Z,28.97
2022-12-19T15:14:51.164Z,31.30
2022-12-19T15:15:45.362Z,30.37
2022-12-19T15:18:22.444Z,34.43
2022-12-19T15:20:50.499Z,31.53
2022-12-19T15:23:22.391Z,35.07
2022-12-19T15:26:07.997Z,30.80
2022-12-19T15:28:40.108Z,33.67
2022-12-19T15:31:29.746Z,29.93
2022-12-19T15:34:33.179Z,28.43
2022-12-19T15:36:45.254Z,32.23
2022-12-19T15:39:13.453Z,30.60
2022-12-19T15:41:40.886Z,30.43
2022-12-19T15:44:10.786Z,35.80
2022-12-19T15:46:44.725Z,31.00
2022-12-19T15:49:17.077Z,32.33
2022-12-19T15:51:44.772Z,30.47
2022-12-19T15:56:59.776Z,34.03
2022-12-19T15:59:37.509Z,30.60
2022-12-19T16:02:16.938Z,33.43
2022-12-19T16:04:45.755Z,27.73
2022-12-19T16:07:16.060Z,31.97
2022-12-19T16:09:43.580Z,30.47
2022-12-19T16:12:15.786Z,32.10
2022-12-19T16:14:43.647Z,28.67
2022-12-19T16:17:18.949Z,28.23
2022-12-19T16:19:46.408Z,28.10
2022-12-19T16:22:19.389Z,29.17
2022-12-19T16:24:46.967Z,30.03
2022-12-19T16:27:22.688Z,29.73
2022-12-19T16:29:50.663Z,28.60
2022-12-19T16:32:20.140Z,31.87
2022-12-19T16:34:48.930Z,31.73
2022-12-19T16:37:16.458Z,29.70
2022-12-19T16:39:43.895Z,31.17
2022-12-19T16:42:16.108Z,31.77
2022-12-19T16:44:46.067Z,30.70
2022-12-19T16:47:15.090Z,28.17
2022-12-19T16:49:44.527Z,30.50
2022-12-19T16:52:12.429Z,29.27
2022-12-19T16:54:40.273Z,31.10
2022-12-19T16:57:17.622Z,31.23
2022-12-19T16:59:45.135Z,31.37
2022-12-19T17:02:32.562Z,27.87
2022-12-19T17:05:01.444Z,29.63
2022-12-19T17:07:32.054Z,31.53
2022-12-19T17:09:59.543Z,30.00
2022-12-19T17:12:28.418Z,33.00
2022-12-19T17:14:55.973Z,28.23
2022-12-19T17:17:23.442Z,27.07
2022-12-19T17:19:50.911Z,33.13
2022-12-19T17:22:21.354Z,31.20
2022-12-19T17:24:50.143Z,31.33
2022-12-19T17:27:19.180Z,28.90
2022-12-19T17:29:47.106Z,27.93
2022-12-19T17:32:23.345Z,31.53
2022-12-19T17:34:51.797Z,35.60
2022-12-19T17:37:20.596Z,30.70
2022-12-19T17:39:48.821Z,31.37
2022-12-19T17:42:19.512Z,30.23
2022-12-19T17:44:46.963Z,29.50
2022-12-19T17:47:16.348Z,27.33
2022-12-19T17:49:44.365Z,31.70
2022-12-19T17:52:15.395Z,25.07
2022-12-19T17:54:44.488Z,13.67
2022-12-19T17:57:15.698Z,11.87
2022-12-19T17:59:43.434Z,12.80
2022-12-19T18:02:21.197Z,16.27
2022-12-19T18:04:48.804Z,15.20
2022-12-19T18:07:18.160Z,13.33
2022-12-19T18:09:47.128Z,12.90
2022-12-19T18:12:14.747Z,14.10
2022-12-19T18:14:42.359Z,14.10
2022-12-19T18:17:12.386Z,20.43
2022-12-19T18:19:40.245Z,20.33
2022-12-19T18:22:11.763Z,23.40
2022-12-19T18:24:39.303Z,21.03
2022-12-19T18:27:08.121Z,25.33
2022-12-19T18:29:35.893Z,25.80
2022-12-19T18:32:03.565Z,27.43
2022-12-19T18:34:34.235Z,24.77
2022-12-19T18:37:03.785Z,24.30
2022-12-19T18:39:32.068Z,27.27
2022-12-19T18:41:59.512Z,28.10
2022-12-19T18:44:28.277Z,27.13
2022-12-19T18:46:55.782Z,28.53
2022-12-19T18:49:23.777Z,33.13
2022-12-19T18:51:51.232Z,30.13
2022-12-19T18:54:20.639Z,30.73
2022-12-19T18:56:48.811Z,31.13
2022-12-19T18:59:16.241Z,29.77
2022-12-19T19:01:47.416Z,32.33
2022-12-19T19:04:18.093Z,33.50
2022-12-19T19:06:51.507Z,31.90
2022-12-19T19:09:21.974Z,28.93
2022-12-19T19:11:49.460Z,30.63
2022-12-19T19:14:16.990Z,31.77
2022-12-19T19:16:45.887Z,33.03
2022-12-19T19:19:17.529Z,29.43
2022-12-19T19:21:45.512Z,30.93
2022-12-19T19:24:15.825Z,32.83
2022-12-19T19:26:43.324Z,31.57
2022-12-19T19:29:13.465Z,28.73
2022-12-19T19:31:44.993Z,28.87
2022-12-19T19:34:19.420Z,27.87
2022-12-19T19:36:50.225Z,28.43
2022-12-19T19:39:19.779Z,31.20
2022-12-19T19:41:47.212Z,27.23
2022-12-19T19:44:14.795Z,27.70
2022-12-19T19:46:42.316Z,29.73
2022-12-19T19:49:09.856Z,31.77
2022-12-19T19:51:39.257Z,26.23
2022-12-19T19:54:06.778Z,37.40
2022-12-19T19:56:34.225Z,30.23
2022-12-19T19:59:01.733Z,30.70
2022-12-19T20:01:29.257Z,28.83
2022-12-19T20:03:56.987Z,28.27
2022-12-19T20:06:24.768Z,30.40
2022-12-19T20:08:53.528Z,29.03
2022-12-19T20:11:21.527Z,27.63
2022-12-19T20:13:49.181Z,28.53
2022-12-19T20:16:18.734Z,29.00
2022-12-19T20:18:49.284Z,26.90
2022-12-19T20:21:17.143Z,29.23
2022-12-19T20:23:45.129Z,29.07
2022-12-19T20:26:16.202Z,30.30
2022-12-19T20:28:49.104Z,26.97
2022-12-19T20:31:17.679Z,28.73
2022-12-19T20:33:46.217Z,27.20
2022-12-19T20:36:13.920Z,26.00
2022-12-19T20:38:41.616Z,25.33
2022-12-19T20:41:09.708Z,26.67
2022-12-19T20:43:38.970Z,33.17
2022-12-19T20:46:08.538Z,31.07
2022-12-19T20:48:36.584Z,30.40
2022-12-19T20:51:05.162Z,27.37
2022-12-19T20:53:33.282Z,26.90
2022-12-19T20:56:02.137Z,28.47
2022-12-19T20:58:31.570Z,28.77
2022-12-19T21:01:06.233Z,29.43
2022-12-19T21:03:34.144Z,23.97
2022-12-19T21:06:02.008Z,25.23
2022-12-19T21:08:29.988Z,28.50
2022-12-19T21:10:57.600Z,29.03
2022-12-19T21:13:25.135Z,26.20
2022-12-19T21:15:53.854Z,26.40
2022-12-19T21:18:22.972Z,24.10
2022-12-19T21:20:53.134Z,22.87
2022-12-19T21:23:21.127Z,26.90
2022-12-19T21:25:49.274Z,25.33
2022-12-19T21:28:16.776Z,28.77
2022-12-19T21:30:44.589Z,23.90
2022-12-19T21:33:12.216Z,25.90
2022-12-19T21:35:40.989Z,26.23
2022-12-19T21:38:08.407Z,25.40
2022-12-19T21:40:37.418Z,26.43
2022-12-19T21:43:11.495Z,24.20
2022-12-19T21:45:40.076Z,25.37
2022-12-19T21:48:08.090Z,23.07
2022-12-19T21:50:36.516Z,26.13
2022-12-19T21:53:05.353Z,22.20
2022-12-19T21:55:32.888Z,26.60
2022-12-19T21:58:00.432Z,22.50
2022-12-19T22:00:28.745Z,24.33
2022-12-19T22:03:13.291Z,24.97
2022-12-19T22:05:41.832Z,23.80
2022-12-19T22:08:11.903Z,23.97
2022-12-19T22:10:40.677Z,24.17
2022-12-19T22:13:08.142Z,23.57
2022-12-19T22:15:36.552Z,24.70
2022-12-19T22:18:04.382Z,23.40
2022-12-19T22:20:32.095Z,24.33
2022-12-19T22:22:59.823Z,25.60
2022-12-19T22:25:28.725Z,22.73
2022-12-19T22:27:56.479Z,25.53
2022-12-19T22:30:24.088Z,21.77
2022-12-19T22:32:51.579Z,25.20
2022-12-19T22:35:19.805Z,22.03
2022-12-19T22:37:47.452Z,26.03
2022-12-19T22:40:15.203Z,24.20
2022-12-19T22:42:44.172Z,25.73
2022-12-19T22:45:12.319Z,23.47
2022-12-19T22:47:42.564Z,21.67
2022-12-19T22:50:11.460Z,23.40
2022-12-19T22:52:40.280Z,23.83
2022-12-19T22:55:08.750Z,21.77
2022-12-19T22:57:36.352Z,22.37
2022-12-19T23:00:07.458Z,24.27
2022-12-19T23:02:35.473Z,25.27
2022-12-19T23:05:03.151Z,23.27
2022-12-19T23:07:30.991Z,24.03
2022-12-19T23:09:58.551Z,22.40
2022-12-19T23:12:26.677Z,24.70
2022-12-19T23:14:54.355Z,25.03
2022-12-19T23:17:23.666Z,25.53
2022-12-19T23:19:51.245Z,22.20
2022-12-19T23:22:18.804Z,22.80
2022-12-19T23:24:46.674Z,24.70
2022-12-19T23:27:14.301Z,23.80
2022-12-19T23:29:43.586Z,21.60
2022-12-19T23:32:11.704Z,23.53
2022-12-19T23:34:40.639Z,25.83
2022-12-19T23:37:11.201Z,22.93
2022-12-19T23:39:39.615Z,27.33
2022-12-19T23:42:07.039Z,24.33
2022-12-19T23:44:34.763Z,24.53
2022-12-19T23:47:03.836Z,23.97
2022-12-19T23:49:32.276Z,22.83
2022-12-19T23:52:01.097Z,25.60
2022-12-19T23:54:28.627Z,22.83
2022-12-19T23:56:56.121Z,24.67
2022-12-19T23:59:23.718Z,22.27
